Time;durP1;ratioP1;P1;durP2;ratioP2;P2;SDS_P1;SDS_P2;PMS_P1;PMS_P2;Temp;Humidity;BMP_temperature;BMP_pressure;BME280_temperature;BME280_humidity;BME280_pressure;Samples;Min_cycle;Max_cycle;Signal;HPM_P1;HPM_P2
2022/11/14 00:00:38;;;;;;;24.20;18.08;;;;;;;4.28;100.00;101483.69;5029801;28;20087;-63
2022/11/14 00:03:05;;;;;;;24.88;18.00;;;;;;;4.24;100.00;101480.59;5030038;28;20029;-62
2022/11/14 00:05:31;;;;;;;24.67;18.23;;;;;;;4.24;99.86;101482.53;5029894;28;20057;-62
2022/11/14 00:07:57;;;;;;;24.45;18.75;;;;;;;4.24;100.00;101482.53;5029841;28;20037;-63
2022/11/14 00:10:22;;;;;;;25.25;17.95;;;;;;;4.20;100.00;101483.00;5029829;28;20026;-62
2022/11/14 00:12:47;;;;;;;25.27;17.60;;;;;;;4.17;99.68;101469.81;5029906;28;20033;-62
2022/11/14 00:15:13;;;;;;;25.05;18.48;;;;;;;4.17;100.00;101469.00;5030002;28;20107;-62
2022/11/14 00:17:39;;;;;;;24.15;17.33;;;;;;;4.15;100.00;101476.63;5030002;28;20216;-63
2022/11/14 00:20:06;;;;;;;24.83;18.05;;;;;;;4.11;99.97;101470.81;5029493;28;20056;-62
2022/11/14 00:22:31;;;;;;;24.73;17.25;;;;;;;4.12;100.00;101466.16;5029523;28;20052;-61
2022/11/14 00:24:56;;;;;;;24.60;16.63;;;;;;;4.11;100.00;101464.50;5029625;28;20026;-62
2022/11/14 00:27:22;;;;;;;24.40;18.17;;;;;;;4.10;99.33;101457.38;5029720;28;20045;-61
2022/11/14 00:29:47;;;;;;;24.65;17.98;;;;;;;4.09;99.72;101463.94;5029695;28;20025;-62
2022/11/14 00:32:13;;;;;;;23.92;16.48;;;;;;;4.06;99.26;101459.78;5029715;28;20139;-61
2022/11/14 00:34:38;;;;;;;22.52;16.50;;;;;;;4.04;99.42;101460.00;5029909;28;20033;-61
2022/11/14 00:37:03;;;;;;;22.73;15.90;;;;;;;4.02;99.28;101458.59;5029322;28;20449;-61
2022/11/14 00:39:28;;;;;;;22.33;16.35;;;;;;;4.01;99.55;101452.31;5033210;28;20025;-61
2022/11/14 00:41:54;;;;;;;24.17;17.35;;;;;;;3.99;99.24;101445.38;5033253;28;20450;-61
2022/11/14 00:44:19;;;;;;;24.30;16.58;;;;;;;3.97;99.68;101439.34;5028947;28;20108;-60
2022/11/14 00:46:44;;;;;;;23.95;16.80;;;;;;;3.95;99.17;101441.50;5031636;28;20029;-62
2022/11/14 00:49:10;;;;;;;23.00;16.27;;;;;;;3.92;99.23;101448.28;5033117;28;20343;-59
2022/11/14 00:51:36;;;;;;;23.00;16.70;;;;;;;3.88;99.50;101447.13;5031558;28;20042;-62
2022/11/14 00:54:01;;;;;;;23.23;16.52;;;;;;;3.86;99.41;101449.28;5033291;28;20026;-62
2022/11/14 00:56:26;;;;;;;23.33;16.58;;;;;;;3.83;99.88;101447.03;5031734;28;20068;-62
2022/11/14 00:58:52;;;;;;;22.90;16.30;;;;;;;3.80;99.90;101434.66;5031852;28;20091;-60
2022/11/14 01:01:17;;;;;;;23.08;17.77;;;;;;;3.77;100.00;101437.06;5032915;28;20438;-60
2022/11/14 01:03:46;;;;;;;23.08;17.00;;;;;;;3.72;100.00;101430.44;5033170;28;20036;-61
2022/11/14 01:06:13;;;;;;;23.45;16.23;;;;;;;3.69;100.00;101435.53;5015284;28;20032;-61
2022/11/14 01:08:38;;;;;;;26.42;17.55;;;;;;;3.69;100.00;101432.81;5033000;28;20101;-61
2022/11/14 01:11:14;;;;;;;22.88;16.25;;;;;;;3.61;100.00;101422.25;5031430;28;20112;-60
2022/11/14 01:13:39;;;;;;;22.50;16.75;;;;;;;3.59;100.00;101426.06;5032660;28;20033;-61
2022/11/14 01:16:05;;;;;;;22.15;17.17;;;;;;;3.56;100.00;101423.00;5032841;28;20021;-62
2022/11/14 01:18:31;;;;;;;22.77;17.00;;;;;;;3.51;100.00;101420.19;5032391;28;20045;-61
2022/11/14 01:20:56;;;;;;;23.40;17.38;;;;;;;3.46;100.00;101414.59;5032846;28;20425;-61
2022/11/14 01:23:21;;;;;;;23.33;17.30;;;;;;;3.46;100.00;101420.91;5032060;28;20032;-61
2022/11/14 01:25:47;;;;;;;23.13;17.35;;;;;;;3.41;100.00;101407.13;5032616;28;20021;-62
2022/11/14 01:28:15;;;;;;;23.33;17.75;;;;;;;3.39;100.00;101404.63;5032619;28;20029;-61
2022/11/14 01:30:40;;;;;;;24.75;17.73;;;;;;;3.36;100.00;101391.44;5032498;28;20037;-62
2022/11/14 01:33:06;;;;;;;22.40;16.58;;;;;;;3.37;100.00;101390.38;5032230;28;20032;-61
2022/11/14 01:35:34;;;;;;;23.27;17.50;;;;;;;3.35;100.00;101397.16;5032284;28;20106;-61
2022/11/14 01:37:59;;;;;;;23.77;17.42;;;;;;;3.33;100.00;101388.38;5030929;28;20033;-62
2022/11/14 01:40:26;;;;;;;22.85;17.00;;;;;;;3.33;100.00;101385.63;5030303;28;20503;-61
2022/11/14 01:43:10;;;;;;;25.40;17.42;;;;;;;3.32;100.00;101383.97;5029887;28;20033;-61
2022/11/14 01:45:53;;;;;;;25.02;17.63;;;;;;;3.30;100.00;101384.22;5030567;28;20033;-62
2022/11/14 01:48:40;;;;;;;22.55;17.17;;;;;;;3.31;100.00;101372.22;5031627;28;20030;-61
2022/11/14 01:51:20;;;;;;;24.33;17.95;;;;;;;3.29;100.00;101366.16;5032063;28;20033;-61
2022/11/14 01:53:49;;;;;;;22.95;17.40;;;;;;;3.28;100.00;101364.50;5032066;28;20030;-61
2022/11/14 01:56:17;;;;;;;24.95;18.45;;;;;;;3.27;100.00;101362.81;5031950;28;20032;-61
2022/11/14 01:58:48;;;;;;;23.50;16.92;;;;;;;3.27;100.00;101360.94;5032015;28;20381;-60
2022/11/14 02:01:14;;;;;;;23.02;16.88;;;;;;;3.27;100.00;101360.09;5030417;28;20040;-60
2022/11/14 02:03:43;;;;;;;25.02;17.60;;;;;;;3.20;100.00;101348.47;5031724;28;20029;-61
2022/11/14 02:06:12;;;;;;;23.98;17.88;;;;;;;3.28;100.00;101357.13;5031704;28;20033;-61
2022/11/14 02:08:39;;;;;;;26.67;18.48;;;;;;;3.26;100.00;101356.53;5030126;28;20529;-62
2022/11/14 02:11:04;;;;;;;25.05;18.30;;;;;;;3.23;100.00;101353.47;5030067;28;20057;-61
2022/11/14 02:13:30;;;;;;;23.83;18.42;;;;;;;3.23;100.00;101346.09;5031599;28;20174;-61
2022/11/14 02:15:56;;;;;;;25.15;18.45;;;;;;;3.20;100.00;101341.13;5031638;28;20424;-61
2022/11/14 02:18:21;;;;;;;25.00;18.55;;;;;;;3.19;100.00;101342.19;4995881;22;20115;-63
2022/11/14 02:20:46;;;;;;;25.52;19.27;;;;;;;3.17;100.00;101338.03;4972957;28;20053;-63
2022/11/14 02:23:12;;;;;;;25.50;18.75;;;;;;;3.12;100.00;101336.88;4972783;28;20026;-62
2022/11/14 02:25:38;;;;;;;26.58;18.10;;;;;;;3.13;100.00;101332.22;4972836;28;20092;-64
2022/11/14 02:28:06;;;;;;;25.00;18.27;;;;;;;3.10;100.00;101332.72;4972653;28;20105;-63
2022/11/14 02:30:32;;;;;;;25.00;18.35;;;;;;;3.10;100.00;101330.00;4973043;28;20109;-63
2022/11/14 02:32:57;;;;;;;24.95;18.35;;;;;;;3.06;100.00;101329.66;4972761;28;20497;-62
2022/11/14 02:35:22;;;;;;;26.10;19.17;;;;;;;3.03;100.00;101327.41;4972736;28;20474;-62
2022/11/14 02:37:48;;;;;;;25.33;19.58;;;;;;;2.98;100.00;101330.00;4972493;28;20039;-62
2022/11/14 02:40:13;;;;;;;25.65;19.13;;;;;;;2.95;100.00;101325.88;4970292;28;20118;-62
2022/11/14 02:42:38;;;;;;;24.17;18.20;;;;;;;2.92;100.00;101329.09;4969407;28;20023;-62
2022/11/14 02:45:04;;;;;;;25.27;17.73;;;;;;;2.89;100.00;101331.47;4972512;28;20031;-62
2022/11/14 02:47:29;;;;;;;26.20;18.52;;;;;;;2.85;100.00;101333.84;4972322;28;20344;-62
2022/11/14 02:49:55;;;;;;;25.48;18.55;;;;;;;2.80;100.00;101328.31;4972431;28;20062;-62
2022/11/14 02:52:20;;;;;;;28.20;20.35;;;;;;;2.77;100.00;101332.34;4972124;28;20029;-62
2022/11/14 02:54:45;;;;;;;27.52;19.83;;;;;;;2.73;100.00;101335.81;4972412;28;20033;-64
2022/11/14 02:57:10;;;;;;;26.75;19.73;;;;;;;2.68;100.00;101331.06;4972177;28;20081;-64
2022/11/14 02:59:36;;;;;;;26.55;19.55;;;;;;;2.64;100.00;101327.16;4971463;28;20450;-63
2022/11/14 03:02:01;;;;;;;26.00;19.50;;;;;;;2.62;100.00;101330.13;4971851;28;20038;-62
2022/11/14 03:04:26;;;;;;;27.80;20.30;;;;;;;2.58;100.00;101325.38;4972470;28;20472;-63
2022/11/14 03:06:52;;;;;;;26.48;18.92;;;;;;;2.51;100.00;101320.06;4972212;28;20042;-63
2022/11/14 03:09:17;;;;;;;26.10;18.20;;;;;;;2.50;100.00;101319.22;4972114;28;20030;-63
2022/11/14 03:11:42;;;;;;;26.80;19.63;;;;;;;2.47;100.00;101319.72;4972096;28;20037;-63
2022/11/14 03:14:08;;;;;;;26.77;19.35;;;;;;;2.42;100.00;101313.31;4971937;28;20058;-63
2022/11/14 03:16:33;;;;;;;26.98;19.67;;;;;;;2.38;100.00;101318.41;4972079;28;20106;-64
2022/11/14 03:18:58;;;;;;;26.10;19.63;;;;;;;2.36;100.00;101319.72;4972099;28;20031;-63
2022/11/14 03:21:24;;;;;;;25.35;19.58;;;;;;;2.30;100.00;101316.06;4972068;28;20038;-64
2022/11/14 03:23:49;;;;;;;27.33;20.02;;;;;;;2.25;100.00;101315.91;4971925;28;20018;-63
2022/11/14 03:26:15;;;;;;;27.00;19.48;;;;;;;2.21;100.00;101312.03;4972042;28;20069;-63
2022/11/14 03:28:41;;;;;;;27.77;19.73;;;;;;;2.17;100.00;101312.50;4972156;28;20027;-64
2022/11/14 03:31:07;;;;;;;25.65;18.95;;;;;;;2.13;100.00;101314.03;4972139;28;20041;-64
2022/11/14 03:33:33;;;;;;;27.55;19.38;;;;;;;2.09;100.00;101301.09;4972049;28;20045;-64
2022/11/14 03:35:58;;;;;;;27.63;20.27;;;;;;;2.07;100.00;101298.59;4972005;28;20071;-64
2022/11/14 03:38:24;;;;;;;27.30;19.90;;;;;;;2.03;100.00;101300.16;4972129;28;20113;-63
2022/11/14 03:40:50;;;;;;;27.50;20.35;;;;;;;2.03;100.00;101300.16;4968518;28;20031;-64
2022/11/14 03:43:16;;;;;;;28.23;20.55;;;;;;;2.00;100.00;101293.25;4972081;28;20088;-63
2022/11/14 03:45:42;;;;;;;27.08;20.17;;;;;;;2.00;100.00;101293.25;4972020;28;20141;-62
2022/11/14 03:48:07;;;;;;;28.45;20.45;;;;;;;2.00;100.00;101287.00;4972044;28;20034;-64
2022/11/14 03:50:33;;;;;;;25.48;20.20;;;;;;;1.98;100.00;101289.97;4972226;28;20043;-61
2022/11/14 03:52:58;;;;;;;29.02;21.98;;;;;;;1.99;100.00;101283.41;4972175;28;20424;-63
2022/11/14 03:55:24;;;;;;;28.45;20.08;;;;;;;2.00;100.00;101287.81;4972189;28;20019;-62
2022/11/14 03:57:49;;;;;;;28.45;21.10;;;;;;;2.01;100.00;101286.75;4971961;28;20122;-62
2022/11/14 04:00:15;;;;;;;28.92;20.33;;;;;;;2.01;100.00;101284.00;4971877;28;20110;-64
2022/11/14 04:02:40;;;;;;;29.73;20.70;;;;;;;2.01;100.00;101296.84;4971813;28;20048;-65
2022/11/14 04:05:06;;;;;;;27.52;20.83;;;;;;;1.98;100.00;101295.44;4971898;28;20034;-63
2022/11/14 04:07:32;;;;;;;27.55;20.08;;;;;;;1.95;100.00;101276.78;4971852;28;20046;-63
2022/11/14 04:09:57;;;;;;;28.27;21.20;;;;;;;1.95;100.00;101282.25;4971908;28;20030;-62
2022/11/14 04:12:22;;;;;;;27.90;20.77;;;;;;;1.92;100.00;101274.53;4974684;28;20451;-62
2022/11/14 04:14:47;;;;;;;27.02;20.88;;;;;;;1.89;100.00;101269.53;4975559;28;20023;-62
2022/11/14 04:17:13;;;;;;;27.60;20.70;;;;;;;1.85;100.00;101269.19;4975192;28;20411;-62
2022/11/14 04:19:38;;;;;;;27.35;21.13;;;;;;;1.81;100.00;101261.72;4975359;28;20023;-62
2022/11/14 04:22:03;;;;;;;28.90;20.63;;;;;;;1.77;100.00;101257.81;4975211;28;20026;-62
2022/11/14 04:24:28;;;;;;;27.33;19.98;;;;;;;1.72;100.00;101261.25;4975212;28;20042;-62
2022/11/14 04:26:54;;;;;;;27.25;20.95;;;;;;;1.69;100.00;101257.09;4975407;28;20023;-63
2022/11/14 04:29:19;;;;;;;28.67;21.30;;;;;;;1.66;100.00;101254.00;4975423;28;20066;-63
2022/11/14 04:31:44;;;;;;;27.30;21.23;;;;;;;1.63;100.00;101255.31;4975258;28;20039;-63
2022/11/14 04:34:10;;;;;;;29.90;22.17;;;;;;;1.60;100.00;101254.94;4975244;28;20049;-62
2022/11/14 04:36:35;;;;;;;29.20;21.30;;;;;;;1.54;100.00;101252.09;4975184;28;20122;-63
2022/11/14 04:39:00;;;;;;;28.85;22.05;;;;;;;1.49;100.00;101246.50;4975041;28;20035;-62
2022/11/14 04:41:25;;;;;;;28.58;21.15;;;;;;;1.55;100.00;101250.19;4971039;28;20601;-62
2022/11/14 04:43:51;;;;;;;28.70;21.27;;;;;;;1.53;100.00;101250.44;4975158;28;20467;-62
2022/11/14 04:46:16;;;;;;;29.42;21.42;;;;;;;1.54;100.00;101254.84;4975065;28;20168;-62
2022/11/14 04:48:41;;;;;;;29.23;21.23;;;;;;;1.55;100.00;101258.38;4975076;28;20027;-63
2022/11/14 04:51:07;;;;;;;29.73;21.33;;;;;;;1.55;100.00;101250.19;4975044;28;20033;-63
2022/11/14 04:53:32;;;;;;;29.13;21.40;;;;;;;1.57;100.00;101245.34;4974909;28;20030;-63
2022/11/14 04:55:57;;;;;;;28.52;21.00;;;;;;;1.56;100.00;101252.69;4974744;28;20478;-63
2022/11/14 04:58:22;;;;;;;28.60;21.13;;;;;;;1.59;100.00;101242.38;4974764;28;20041;-62
2022/11/14 05:00:48;;;;;;;29.58;22.15;;;;;;;1.60;100.00;101247.59;4974971;28;20475;-62
2022/11/14 05:03:13;;;;;;;30.50;21.95;;;;;;;1.59;100.00;101245.94;4974754;28;20033;-64
2022/11/14 05:05:38;;;;;;;31.15;22.30;;;;;;;1.62;100.00;101244.63;4973163;28;20466;-64
2022/11/14 05:08:04;;;;;;;29.25;21.83;;;;;;;1.62;100.00;101241.91;4974559;28;20058;-64
2022/11/14 05:10:29;;;;;;;32.05;22.48;;;;;;;1.62;100.00;101234.53;4974506;28;20053;-64
2022/11/14 05:12:54;;;;;;;30.52;22.50;;;;;;;1.59;100.00;101232.31;4974626;28;20041;-64
2022/11/14 05:15:20;;;;;;;30.92;22.65;;;;;;;1.59;100.00;101236.91;4974329;28;20122;-64
2022/11/14 05:17:46;;;;;;;30.30;22.40;;;;;;;1.56;100.00;101225.41;4974093;28;20062;-65
2022/11/14 05:20:11;;;;;;;29.65;22.15;;;;;;;1.57;100.00;101234.44;4974329;28;20428;-65
2022/11/14 05:22:37;;;;;;;31.33;22.52;;;;;;;1.54;100.00;101227.56;4973360;28;20030;-65
2022/11/14 05:25:02;;;;;;;30.85;21.48;;;;;;;1.55;100.00;101234.69;4974204;28;20033;-65
2022/11/14 05:27:28;;;;;;;29.65;21.67;;;;;;;1.53;100.00;101227.78;4972763;28;20317;-65
2022/11/14 05:29:54;;;;;;;29.73;21.85;;;;;;;1.50;100.00;101218.19;4974138;28;20106;-66
2022/11/14 05:32:20;;;;;;;28.92;21.67;;;;;;;1.48;100.00;101216.75;4974673;28;20494;-66
2022/11/14 05:34:45;;;;;;;30.50;21.90;;;;;;;1.49;100.00;101219.25;4974508;28;20201;-65
2022/11/14 05:37:10;;;;;;;31.20;22.00;;;;;;;1.47;100.00;101209.66;4973945;28;20470;-65
2022/11/14 05:39:36;;;;;;;30.17;21.58;;;;;;;1.46;100.00;101208.84;4972768;28;20494;-65
2022/11/14 05:42:01;;;;;;;30.23;22.45;;;;;;;1.41;100.00;101197.78;4969668;28;20034;-65
2022/11/14 05:44:26;;;;;;;29.92;22.00;;;;;;;1.42;100.00;101204.91;4974378;28;20022;-65
2022/11/14 05:46:51;;;;;;;30.40;22.25;;;;;;;1.42;100.00;101202.19;4974446;28;20034;-65
2022/11/14 05:49:17;;;;;;;31.27;22.23;;;;;;;1.39;100.00;101202.63;4974412;28;20027;-66
2022/11/14 05:51:42;;;;;;;32.05;22.85;;;;;;;1.37;100.00;101197.44;4974100;28;20479;-66
2022/11/14 05:54:07;;;;;;;29.50;22.23;;;;;;;1.36;100.00;101198.50;4974178;28;20092;-65
2022/11/14 05:56:33;;;;;;;29.70;21.50;;;;;;;1.34;100.00;101194.34;4974282;28;20467;-67
2022/11/14 05:58:58;;;;;;;30.40;23.30;;;;;;;1.32;100.00;101197.31;4974096;28;20494;-65
2022/11/14 06:01:23;;;;;;;30.02;23.13;;;;;;;1.28;100.00;101193.41;4973919;28;20045;-65
2022/11/14 06:03:49;;;;;;;29.77;22.50;;;;;;;1.28;100.00;101200.72;4972437;28;20035;-65
2022/11/14 06:06:19;;;;;;;29.77;22.38;;;;;;;1.23;100.00;101198.69;4973832;28;20031;-64
2022/11/14 06:08:44;;;;;;;29.15;21.40;;;;;;;1.18;100.00;101193.97;4972442;28;20554;-64
2022/11/14 06:11:18;;;;;;;32.75;23.42;;;;;;;1.19;100.00;101194.81;4973678;28;20207;-64
2022/11/14 06:13:44;;;;;;;;;;;;;;;1.20;100.00;101196.47;4973246;28;20038;-61
2022/11/14 06:16:12;;;;;;;30.23;20.73;;;;;;;1.10;100.00;101194.31;4972645;28;19910;-63
2022/11/14 06:18:38;;;;;;;32.03;22.33;;;;;;;1.12;100.00;101205.00;4972407;28;20051;-62
2022/11/14 06:21:13;;;;;;;30.33;22.17;;;;;;;1.12;100.00;101205.00;4972532;28;20037;-63
2022/11/14 06:23:38;;;;;;;31.50;22.23;;;;;;;1.08;100.00;101196.44;4972475;28;20027;-63
2022/11/14 06:26:06;;;;;;;32.35;22.33;;;;;;;1.05;100.00;101196.91;4972359;28;20423;-64
2022/11/14 06:28:31;;;;;;;29.75;20.75;;;;;;;1.07;100.00;101194.78;4972270;28;20106;-64
2022/11/14 06:30:58;;;;;;;30.95;21.83;;;;;;;1.06;100.00;101202.13;4972295;28;20027;-64
2022/11/14 06:33:24;;;;;;;31.80;21.80;;;;;;;1.03;100.00;101202.59;4972041;28;20088;-64
2022/11/14 06:35:49;;;;;;;30.15;21.40;;;;;;;1.01;100.00;101204.72;4971171;28;20034;-63
2022/11/14 06:38:15;;;;;;;30.40;21.70;;;;;;;0.99;100.00;101204.13;4969249;28;20228;-64
2022/11/14 06:40:40;;;;;;;31.50;21.00;;;;;;;0.98;100.00;101205.19;4972087;28;20039;-64
2022/11/14 06:43:05;;;;;;;30.02;21.73;;;;;;;0.97;100.00;101208.97;4971730;28;20043;-64
2022/11/14 06:45:30;;;;;;;30.02;21.63;;;;;;;0.94;100.00;101201.28;4971774;28;20030;-63
2022/11/14 06:47:59;;;;;;;30.15;21.83;;;;;;;0.93;100.00;101203.16;4971513;28;20125;-64
2022/11/14 06:50:24;;;;;;;32.35;22.23;;;;;;;0.92;100.00;101196.03;4971304;28;20340;-63
2022/11/14 06:52:49;;;;;;;30.38;21.17;;;;;;;0.93;100.00;101202.34;4971169;28;20156;-64
2022/11/14 06:55:15;;;;;;;31.52;20.83;;;;;;;0.92;100.00;101212.38;4972145;28;20110;-59
2022/11/14 06:57:40;;;;;;;30.65;20.65;;;;;;;0.91;100.00;101201.72;4972481;28;20026;-61
2022/11/14 07:00:06;;;;;;;28.48;20.60;;;;;;;0.92;100.00;101209.66;4972117;28;20133;-65
2022/11/14 07:02:32;;;;;;;30.23;21.52;;;;;;;0.94;100.00;101209.44;4971764;28;20019;-62
2022/11/14 07:04:58;;;;;;;30.65;22.42;;;;;;;0.94;100.00;101209.44;4971932;28;20057;-61
2022/11/14 07:07:24;;;;;;;29.27;21.73;;;;;;;0.95;100.00;101210.28;4970483;28;20114;-62
2022/11/14 07:09:49;;;;;;;28.92;21.92;;;;;;;0.95;100.00;101219.25;4971643;28;20034;-65
2022/11/14 07:12:15;;;;;;;30.80;22.02;;;;;;;0.98;100.00;101205.19;4970011;28;20031;-64
2022/11/14 07:14:40;;;;;;;29.42;20.90;;;;;;;0.99;100.00;101209.56;4969997;28;20053;-63
2022/11/14 07:17:05;;;;;;;30.70;21.58;;;;;;;1.03;100.00;101212.66;4967839;28;20109;-66
2022/11/14 07:19:31;;;;;;;29.63;21.58;;;;;;;1.05;100.00;101208.63;4968641;28;20085;-65
2022/11/14 07:21:56;;;;;;;28.75;20.30;;;;;;;1.10;100.00;101213.38;4968391;28;20438;-64
2022/11/14 07:24:21;;;;;;;29.95;21.00;;;;;;;1.14;100.00;101217.31;4970849;28;20077;-65
2022/11/14 07:26:47;;;;;;;27.88;20.13;;;;;;;1.15;100.00;101212.69;4965470;28;20037;-64
2022/11/14 07:29:12;;;;;;;29.25;20.58;;;;;;;1.15;100.00;101216.25;4951070;29;20435;-65
2022/11/14 07:31:39;;;;;;;29.33;21.38;;;;;;;1.18;100.00;101217.66;4951536;28;20476;-65
2022/11/14 07:34:05;;;;;;;30.17;20.30;;;;;;;1.21;100.00;101218.03;4951580;28;20027;-65
2022/11/14 07:36:30;;;;;;;29.38;19.98;;;;;;;1.24;100.00;101216.72;4951530;28;20102;-65
2022/11/14 07:38:56;;;;;;;28.75;20.30;;;;;;;1.29;100.00;101213.28;4951284;28;20059;-65
2022/11/14 07:41:21;;;;;;;28.75;20.20;;;;;;;1.32;100.00;101202.78;4956466;28;20027;-65
2022/11/14 07:43:46;;;;;;;28.70;20.25;;;;;;;1.37;100.00;101202.06;4961226;28;20049;-65
2022/11/14 07:46:14;;;;;;;29.30;21.52;;;;;;;1.33;100.00;101181.78;4952508;28;20035;-64
2022/11/14 07:48:40;;;;;;;32.35;21.30;;;;;;;1.46;100.00;101197.06;4955930;28;20107;-64
2022/11/14 07:51:08;;;;;;;28.55;21.20;;;;;;;1.50;100.00;101190.09;4974113;28;20097;-65
2022/11/14 07:53:34;;;;;;;31.48;21.63;;;;;;;1.55;100.00;101192.94;4974652;28;20104;-65
2022/11/14 07:56:05;;;;;;;28.52;20.33;;;;;;;1.61;100.00;101200.16;4974857;28;20062;-65
2022/11/14 07:58:33;;;;;;;28.42;20.70;;;;;;;1.65;100.00;101190.44;4974968;28;20035;-65
2022/11/14 08:01:03;;;;;;;28.95;19.95;;;;;;;1.74;100.00;101190.06;4974799;28;20477;-65
2022/11/14 08:03:28;;;;;;;27.30;20.17;;;;;;;1.80;100.00;101197.28;4974460;28;20759;-65
2022/11/14 08:06:05;;;;;;;29.58;20.30;;;;;;;1.82;100.00;101192.44;4974493;28;20033;-65
2022/11/14 08:08:31;;;;;;;28.13;19.20;;;;;;;1.94;100.00;101192.41;4974568;28;20041;-65
2022/11/14 08:10:58;;;;;;;28.02;19.75;;;;;;;2.00;100.00;101194.22;4974414;28;20030;-65
2022/11/14 08:13:25;;;;;;;26.73;19.05;;;;;;;2.05;100.00;101179.84;4968882;28;20472;-65
2022/11/14 08:15:50;;;;;;;27.05;19.77;;;;;;;2.12;100.00;101186.84;4970256;28;20058;-65
2022/11/14 08:18:15;;;;;;;29.77;19.48;;;;;;;2.20;100.00;101182.06;4974191;28;20459;-65
2022/11/14 08:20:41;;;;;;;27.95;18.85;;;;;;;2.23;100.00;101168.75;4973371;28;20031;-65
2022/11/14 08:23:06;;;;;;;27.27;18.88;;;;;;;2.29;100.00;101165.03;4974379;28;20051;-65
2022/11/14 08:25:32;;;;;;;27.30;19.38;;;;;;;2.36;100.00;101164.91;4974498;28;20033;-65
2022/11/14 08:27:57;;;;;;;27.08;19.38;;;;;;;2.42;100.00;101165.84;4988729;28;20455;-65
2022/11/14 08:30:23;;;;;;;27.70;19.15;;;;;;;2.51;100.00;101178.03;4974116;28;20138;-64
2022/11/14 08:32:49;;;;;;;28.40;19.85;;;;;;;2.57;100.00;101170.75;4973829;28;20042;-65
2022/11/14 08:35:14;;;;;;;27.08;18.95;;;;;;;2.64;100.00;101174.16;4973672;28;20379;-64
2022/11/14 08:37:39;;;;;;;26.30;19.00;;;;;;;2.72;100.00;101165.56;4973869;28;20467;-65
2022/11/14 08:40:05;;;;;;;27.27;19.50;;;;;;;2.80;100.00;101161.63;4973891;28;20039;-64
2022/11/14 08:42:31;;;;;;;24.88;18.95;;;;;;;2.85;100.00;101164.44;4972152;28;20035;-65
2022/11/14 08:44:56;;;;;;;26.73;19.48;;;;;;;2.91;100.00;101160.72;4973829;28;20093;-64
2022/11/14 08:47:21;;;;;;;25.92;18.65;;;;;;;2.99;100.00;101161.41;4972138;28;20038;-65
2022/11/14 08:49:46;;;;;;;26.77;18.70;;;;;;;3.07;100.00;101160.97;4973646;28;20086;-65
2022/11/14 08:52:12;;;;;;;26.83;19.55;;;;;;;3.16;100.00;101156.75;4971989;28;20075;-65
2022/11/14 08:54:37;;;;;;;26.92;19.30;;;;;;;3.24;100.00;101161.81;4971995;28;20066;-65
2022/11/14 08:57:03;;;;;;;27.67;19.77;;;;;;;3.33;100.00;101153.19;4972661;28;20481;-65
2022/11/14 08:59:30;;;;;;;26.73;19.23;;;;;;;3.40;100.00;101162.88;4972677;28;20415;-65
2022/11/14 09:01:55;;;;;;;25.85;18.55;;;;;;;3.50;100.00;101153.97;4973154;28;20133;-65
2022/11/14 09:04:21;;;;;;;32.25;21.00;;;;;;;3.60;100.00;101153.31;4973093;28;20125;-65
2022/11/14 09:06:46;;;;;;;25.83;18.98;;;;;;;3.69;100.00;101148.22;4973066;28;20039;-65
2022/11/14 09:09:11;;;;;;;28.55;19.83;;;;;;;3.75;100.00;101139.84;4972806;28;20117;-65
2022/11/14 09:11:37;;;;;;;27.25;19.67;;;;;;;3.84;100.00;101139.41;4972963;28;20030;-64
2022/11/14 09:14:03;;;;;;;27.10;19.60;;;;;;;3.89;100.00;101129.34;4972719;28;20034;-65
2022/11/14 09:16:28;;;;;;;26.48;19.40;;;;;;;3.99;100.00;101136.03;4972179;28;20455;-65
2022/11/14 09:18:53;;;;;;;25.55;18.75;;;;;;;4.05;100.00;101130.38;4972921;28;20030;-65
2022/11/14 09:21:18;;;;;;;27.17;19.67;;;;;;;4.15;100.00;101126.09;4971621;28;20038;-65
2022/11/14 09:23:46;;;;;;;27.17;20.20;;;;;;;4.20;100.00;101132.47;4972336;28;20031;-65
2022/11/14 09:26:13;;;;;;;29.38;20.75;;;;;;;4.32;100.00;101136.97;4972161;28;20077;-65
2022/11/14 09:28:39;;;;;;;28.90;21.65;;;;;;;4.41;100.00;101129.97;4972002;28;20031;-65
2022/11/14 09:31:10;;;;;;;29.75;21.23;;;;;;;4.48;100.00;101127.84;4971989;28;20073;-66
2022/11/14 09:33:35;;;;;;;28.10;21.05;;;;;;;4.55;100.00;101122.16;4972275;28;20035;-65
2022/11/14 09:36:04;;;;;;;31.42;21.42;;;;;;;4.62;100.00;101111.81;4972209;28;20117;-65
2022/11/14 09:38:29;;;;;;;30.38;21.75;;;;;;;4.66;100.00;101110.22;4972098;28;20035;-65
2022/11/14 09:41:05;;;;;;;30.58;21.85;;;;;;;4.74;100.00;101108.06;4972105;28;20080;-65
2022/11/14 09:43:49;;;;;;;29.15;21.30;;;;;;;4.79;100.00;101110.84;4971803;28;20114;-65
2022/11/14 09:46:45;;;;;;;29.17;21.05;;;;;;;4.86;100.00;101108.75;4972147;28;20070;-65
2022/11/14 09:49:24;;;;;;;29.10;20.92;;;;;;;4.89;100.00;101110.13;4965675;28;20062;-65
2022/11/14 09:51:58;;;;;;;28.75;21.00;;;;;;;4.91;100.00;101110.69;4971750;28;20443;-65
2022/11/14 09:54:27;;;;;;;31.30;21.85;;;;;;;5.04;100.00;101121.22;4971906;28;20111;-65
2022/11/14 09:56:53;;;;;;;29.50;22.35;;;;;;;5.08;100.00;101116.03;4971893;28;20819;-65
2022/11/14 09:59:18;;;;;;;30.80;21.48;;;;;;;5.13;100.00;101119.63;4972067;28;20134;-65
2022/11/14 10:02:04;;;;;;;28.70;21.13;;;;;;;5.19;100.00;101116.94;4971934;28;20041;-65
2022/11/14 10:04:48;;;;;;;30.38;21.38;;;;;;;5.22;100.00;101119.13;4972116;28;20475;-65
2022/11/14 10:07:25;;;;;;;30.17;22.50;;;;;;;5.22;100.00;101106.28;4970541;28;20137;-65
2022/11/14 10:10:15;;;;;;;30.88;22.25;;;;;;;5.26;100.00;101110.13;4971575;28;20034;-65
2022/11/14 10:13:00;;;;;;;31.83;23.08;;;;;;;5.40;100.00;101113.22;4971705;28;20035;-65
2022/11/14 10:15:35;;;;;;;32.85;23.67;;;;;;;5.33;100.00;101101.66;4971341;28;20090;-64
2022/11/14 10:18:26;;;;;;;32.08;22.02;;;;;;;5.44;100.00;101110.78;4971547;28;20097;-65
2022/11/14 10:20:53;;;;;;;27.77;20.30;;;;;;;5.47;100.00;101119.34;4970839;28;20035;-65
2022/11/14 10:23:42;;;;;;;31.33;21.83;;;;;;;5.54;100.00;101115.53;4971415;28;20038;-65
2022/11/14 10:26:23;;;;;;;31.95;22.73;;;;;;;5.57;100.00;101112.25;4971739;28;20042;-65
2022/11/14 10:29:15;;;;;;;31.17;22.08;;;;;;;5.62;100.00;101118.56;4971713;28;20030;-65
2022/11/14 10:31:51;;;;;;;31.55;22.38;;;;;;;5.68;100.00;101113.13;4971528;28;20034;-65
2022/11/14 10:34:29;;;;;;;30.45;21.77;;;;;;;5.73;100.00;101113.97;4971600;28;20118;-64
2022/11/14 10:37:11;;;;;;;29.42;22.00;;;;;;;5.74;100.00;101110.16;4971619;28;20026;-65
2022/11/14 10:39:52;;;;;;;29.15;22.23;;;;;;;5.80;100.00;101110.16;4971473;28;20803;-65
2022/11/14 10:42:29;;;;;;;32.50;23.67;;;;;;;5.81;100.00;101104.38;4971383;28;20109;-65
2022/11/14 10:45:15;;;;;;;29.23;21.85;;;;;;;5.91;100.00;101103.63;4971308;28;20482;-65
2022/11/14 10:47:47;;;;;;;32.42;22.88;;;;;;;5.96;100.00;101100.88;4971112;28;20065;-64
2022/11/14 10:50:23;;;;;;;32.75;22.02;;;;;;;5.97;100.00;101094.31;4971109;28;20035;-65
2022/11/14 10:52:53;;;;;;;32.65;22.70;;;;;;;6.07;100.00;101097.13;4971188;28;20085;-65
2022/11/14 10:55:18;;;;;;;31.70;22.63;;;;;;;6.09;100.00;101099.63;4971149;28;20049;-65
2022/11/14 10:57:45;;;;;;;33.05;23.70;;;;;;;6.15;100.00;101092.19;4971162;28;20379;-65
2022/11/14 11:00:16;;;;;;;31.13;22.65;;;;;;;6.17;100.00;101088.09;4971069;28;20030;-65
2022/11/14 11:02:52;;;;;;;33.47;24.10;;;;;;;6.27;100.00;101083.72;4971135;28;20023;-64
2022/11/14 11:05:20;;;;;;;32.10;23.92;;;;;;;6.30;100.00;101085.91;4971158;28;20105;-64
2022/11/14 11:13:34;;;;;;;33.88;23.95;;;;;;;6.42;100.00;101069.19;4969815;28;20497;-65
2022/11/14 11:16:02;;;;;;;33.55;24.38;;;;;;;6.47;100.00;101070.00;4971141;28;20109;-64